createdAt,value
2023-01-28T00:01:44.123Z,5.20
2023-01-28T00:04:11.850Z,7.93
2023-01-28T00:06:39.680Z,7.10
2023-01-28T00:09:07.769Z,4.80
2023-01-28T00:11:35.485Z,5.83
2023-01-28T00:14:04.785Z,5.57
2023-01-28T00:16:32.563Z,5.97
2023-01-28T00:19:00.219Z,7.20
2023-01-28T00:21:28.176Z,7.83
2023-01-28T00:23:57.268Z,7.27
2023-01-28T00:26:26.176Z,4.93
2023-01-28T00:28:54.234Z,5.90
2023-01-28T00:31:25.249Z,5.97
2023-01-28T00:33:56.172Z,8.53
2023-01-28T00:36:26.749Z,6.43
2023-01-28T00:38:57.839Z,12.00
2023-01-28T00:41:29.037Z,6.37
2023-01-28T00:43:59.398Z,5.32
2023-01-28T00:46:27.939Z,5.87
2023-01-28T00:48:55.813Z,5.80
2023-01-28T00:51:23.892Z,6.20
2023-01-28T00:53:51.734Z,6.43
2023-01-28T00:56:19.738Z,6.23
2023-01-28T00:58:48.381Z,5.20
2023-01-28T01:01:27.892Z,6.77
2023-01-28T01:04:02.923Z,4.93
2023-01-28T01:06:35.919Z,5.30
2023-01-28T01:09:11.666Z,5.00
2023-01-28T01:11:41.425Z,5.60
2023-01-28T01:14:11.217Z,5.53
2023-01-28T01:16:41.203Z,4.90
2023-01-28T01:19:09.549Z,5.03
2023-01-28T01:21:37.475Z,4.73
2023-01-28T01:24:05.715Z,7.33
2023-01-28T01:26:33.399Z,5.60
2023-01-28T01:29:01.368Z,5.87
2023-01-28T01:31:29.251Z,6.27
2023-01-28T01:33:56.929Z,5.93
2023-01-28T01:36:27.048Z,5.07
2023-01-28T01:38:55.817Z,7.70
2023-01-28T01:41:31.734Z,8.80
2023-01-28T01:44:05.581Z,4.90
2023-01-28T01:46:49.738Z,4.82
2023-01-28T01:49:28.502Z,5.75
2023-01-28T01:52:03.779Z,4.80
2023-01-28T01:54:34.023Z,5.40
2023-01-28T01:57:04.040Z,5.30
2023-01-28T01:59:34.760Z,8.27
2023-01-28T02:02:08.040Z,4.97
2023-01-28T02:04:44.117Z,5.27
2023-01-28T02:07:16.567Z,6.13
2023-01-28T02:09:44.632Z,5.40
2023-01-28T02:12:22.045Z,6.13
2023-01-28T02:14:58.763Z,5.37
2023-01-28T02:17:27.805Z,6.30
2023-01-28T02:20:08.256Z,7.47
2023-01-28T02:23:12.340Z,6.63
2023-01-28T02:26:28.298Z,6.65
2023-01-28T02:29:14.377Z,6.97
2023-01-28T02:31:54.443Z,5.60
2023-01-28T02:34:47.396Z,3.90
2023-01-28T02:37:38.263Z,4.17
2023-01-28T02:40:13.187Z,5.40
2023-01-28T02:42:42.125Z,5.27
2023-01-28T02:45:52.259Z,5.17
2023-01-28T02:48:23.756Z,5.27
2023-01-28T02:51:11.400Z,6.13
2023-01-28T02:54:25.322Z,7.07
2023-01-28T02:56:58.921Z,6.53
2023-01-28T02:59:46.325Z,6.23
2023-01-28T03:02:43.148Z,6.70
2023-01-28T03:05:37.230Z,5.80
2023-01-28T03:08:27.508Z,6.22
2023-01-28T03:11:16.475Z,7.07
2023-01-28T03:14:05.430Z,7.50
2023-01-28T03:16:53.911Z,5.37
2023-01-28T03:19:42.745Z,6.17
2023-01-28T03:22:29.668Z,5.73
2023-01-28T03:25:18.390Z,8.57
2023-01-28T03:28:19.112Z,6.67
2023-01-28T03:31:20.454Z,9.13
2023-01-28T03:34:11.918Z,16.75
2023-01-28T03:36:49.963Z,14.17
2023-01-28T03:39:39.166Z,11.40
2023-01-28T03:42:13.766Z,6.73
2023-01-28T03:45:09.441Z,5.20
2023-01-28T03:47:40.517Z,5.57
2023-01-28T03:50:11.372Z,6.70
2023-01-28T03:52:48.903Z,7.67
2023-01-28T03:55:25.902Z,7.87
2023-01-28T03:57:53.819Z,6.07
2023-01-28T04:00:22.623Z,7.03
2023-01-28T04:02:51.082Z,6.23
2023-01-28T04:05:21.310Z,6.07
2023-01-28T04:07:51.681Z,6.73
2023-01-28T04:10:26.832Z,5.87
2023-01-28T04:12:58.634Z,6.07
2023-01-28T04:15:26.839Z,6.00
2023-01-28T04:17:56.016Z,8.47
2023-01-28T04:20:27.808Z,7.07
2023-01-28T04:22:58.523Z,7.00
2023-01-28T04:25:26.391Z,7.07
2023-01-28T04:27:54.812Z,6.93
2023-01-28T04:30:26.681Z,6.80
2023-01-28T04:33:14.618Z,7.50
2023-01-28T04:36:11.976Z,8.07
2023-01-28T04:38:58.419Z,7.07
2023-01-28T04:41:49.421Z,8.23
2023-01-28T04:44:27.472Z,9.13
2023-01-28T04:47:15.478Z,6.70
2023-01-28T04:50:01.446Z,7.70
2023-01-28T04:52:43.078Z,8.77
2023-01-28T04:55:36.966Z,8.57
2023-01-28T04:58:04.929Z,9.27
2023-01-28T05:00:34.351Z,8.93
2023-01-28T05:03:02.795Z,6.80
2023-01-28T05:05:32.282Z,9.33
2023-01-28T05:08:09.607Z,10.57
2023-01-28T05:10:37.331Z,7.33
2023-01-28T05:13:05.053Z,9.87
2023-01-28T05:15:32.896Z,10.87
2023-01-28T05:18:00.632Z,7.93
2023-01-28T05:20:33.753Z,7.63
2023-01-28T05:23:03.508Z,10.80
2023-01-28T05:25:43.474Z,9.63
2023-01-28T05:28:11.667Z,8.73
2023-01-28T05:30:39.897Z,8.87
2023-01-28T05:33:07.709Z,8.07
2023-01-28T05:35:36.513Z,7.20
2023-01-28T05:38:06.159Z,7.13
2023-01-28T05:40:34.006Z,8.80
2023-01-28T05:43:02.322Z,8.10
2023-01-28T05:45:44.719Z,8.83
2023-01-28T05:48:17.455Z,9.77
2023-01-28T05:51:18.053Z,7.60
2023-01-28T05:53:53.941Z,7.33
2023-01-28T05:56:23.583Z,9.97
2023-01-28T05:58:51.421Z,9.97
2023-01-28T06:01:20.611Z,9.50
2023-01-28T06:06:21.664Z,9.37
2023-01-28T06:08:49.624Z,6.90
2023-01-28T06:11:24.066Z,8.23
2023-01-28T06:13:55.029Z,9.50
2023-01-28T06:16:52.374Z,9.57
2023-01-28T06:19:25.400Z,10.07
2023-01-28T06:21:53.236Z,10.37
2023-01-28T06:24:21.725Z,12.90
2023-01-28T06:26:49.521Z,14.57
2023-01-28T06:29:17.366Z,14.83
2023-01-28T06:31:45.164Z,11.63
2023-01-28T06:34:13.287Z,9.40
2023-01-28T06:36:41.029Z,12.20
2023-01-28T06:39:08.974Z,11.73
2023-01-28T06:41:36.817Z,14.87
2023-01-28T06:44:05.024Z,12.67
2023-01-28T06:46:32.784Z,10.47
2023-01-28T06:49:00.703Z,11.47
2023-01-28T06:51:28.547Z,11.63
2023-01-28T06:53:56.267Z,10.70
2023-01-28T06:56:24.007Z,8.97
2023-01-28T06:58:52.090Z,10.80
2023-01-28T07:01:19.795Z,10.63
2023-01-28T07:03:47.636Z,11.73
2023-01-28T07:06:15.602Z,10.60
2023-01-28T07:08:43.443Z,11.53
2023-01-28T07:11:11.174Z,10.77
2023-01-28T07:13:39.006Z,12.07
2023-01-28T07:16:07.815Z,8.20
2023-01-28T07:18:36.015Z,10.07
2023-01-28T07:21:03.975Z,12.03
2023-01-28T07:23:31.822Z,13.87
2023-01-28T07:26:03.984Z,13.27
2023-01-28T07:28:32.310Z,12.03
2023-01-28T07:31:00.103Z,14.53
2023-01-28T07:33:27.868Z,13.47
2023-01-28T07:35:55.708Z,10.57
2023-01-28T07:38:23.555Z,11.93
2023-01-28T07:40:51.299Z,13.77
2023-01-28T07:43:19.114Z,19.07
2023-01-28T07:45:48.704Z,19.50
2023-01-28T07:48:16.725Z,19.90
2023-01-28T07:50:45.644Z,13.77
2023-01-28T07:53:13.604Z,16.27
2023-01-28T07:55:41.686Z,15.87
2023-01-28T07:58:12.288Z,15.53
2023-01-28T08:00:40.385Z,14.30
2023-01-28T08:03:15.936Z,16.03
2023-01-28T08:05:49.871Z,14.03
2023-01-28T08:08:17.950Z,15.38
2023-01-28T08:10:46.263Z,23.50
2023-01-28T08:13:15.986Z,30.17
2023-01-28T08:15:43.934Z,23.67
2023-01-28T08:18:13.838Z,20.47
2023-01-28T08:20:44.728Z,15.87
2023-01-28T08:23:20.744Z,20.93
2023-01-28T08:25:49.013Z,17.00
2023-01-28T08:28:17.328Z,15.63
2023-01-28T08:30:45.641Z,12.93
2023-01-28T08:33:15.558Z,16.67
2023-01-28T08:35:43.488Z,16.67
2023-01-28T08:38:13.298Z,17.27
2023-01-28T08:40:41.066Z,22.83
2023-01-28T08:43:08.669Z,18.80
2023-01-28T08:45:36.262Z,15.80
2023-01-28T08:48:06.451Z,15.40
2023-01-28T08:50:37.526Z,19.80
2023-01-28T08:53:16.387Z,21.90
2023-01-28T08:55:44.898Z,20.10
2023-01-28T08:58:16.235Z,20.63
2023-01-28T09:00:47.132Z,17.03
2023-01-28T09:03:14.794Z,15.47
2023-01-28T09:05:42.659Z,19.47
2023-01-28T09:08:13.729Z,23.97
2023-01-28T09:10:42.048Z,18.53
2023-01-28T09:13:14.110Z,18.97
2023-01-28T09:15:42.526Z,23.97
2023-01-28T09:18:10.298Z,18.33
2023-01-28T09:20:38.622Z,22.70
2023-01-28T09:23:06.691Z,21.80
2023-01-28T09:25:36.159Z,21.27
2023-01-28T09:28:04.678Z,13.93
2023-01-28T09:30:32.502Z,18.30
2023-01-28T09:33:00.056Z,19.53
2023-01-28T09:35:27.619Z,16.27
2023-01-28T09:37:59.491Z,20.53
2023-01-28T09:40:43.915Z,20.07
2023-01-28T09:44:05.147Z,21.43
2023-01-28T09:46:37.073Z,19.60
2023-01-28T09:49:28.203Z,19.37
2023-01-28T09:51:57.357Z,16.97
2023-01-28T09:54:40.268Z,25.40
2023-01-28T09:57:25.892Z,15.33
2023-01-28T09:59:53.469Z,17.10
2023-01-28T10:02:29.779Z,23.47
2023-01-28T10:05:16.699Z,25.63
2023-01-28T10:08:18.118Z,22.17
2023-01-28T10:10:55.739Z,17.37
2023-01-28T10:14:01.065Z,24.37
2023-01-28T10:17:07.669Z,21.67
2023-01-28T10:19:49.799Z,26.87
2023-01-28T10:22:30.783Z,21.63
2023-01-28T10:25:06.677Z,22.20
2023-01-28T10:27:37.124Z,18.03
2023-01-28T10:30:27.461Z,20.87
2023-01-28T10:33:13.788Z,20.33
2023-01-28T10:35:42.586Z,23.37
2023-01-28T10:38:17.081Z,21.43
2023-01-28T10:40:47.939Z,20.63
2023-01-28T10:43:24.791Z,27.53
2023-01-28T10:46:26.722Z,22.10
2023-01-28T10:49:09.660Z,24.07
2023-01-28T10:51:41.317Z,21.60
2023-01-28T10:54:27.454Z,24.80
2023-01-28T10:57:03.324Z,21.47
2023-01-28T10:59:36.503Z,20.10
2023-01-28T11:02:21.042Z,18.52
2023-01-28T11:04:48.552Z,24.00
2023-01-28T11:07:20.619Z,18.97
2023-01-28T11:09:51.764Z,17.77
2023-01-28T11:12:30.830Z,14.57
2023-01-28T11:15:03.555Z,14.87
2023-01-28T11:17:39.254Z,17.60
2023-01-28T11:20:20.902Z,16.20
2023-01-28T11:22:49.979Z,13.80
2023-01-28T11:25:37.138Z,16.47
2023-01-28T11:28:20.342Z,16.67
2023-01-28T11:30:54.193Z,18.33
2023-01-28T11:33:45.158Z,17.35
2023-01-28T11:36:20.940Z,17.27
2023-01-28T11:39:05.392Z,18.90
2023-01-28T11:41:38.952Z,16.80
2023-01-28T11:44:27.586Z,17.63
2023-01-28T11:47:37.947Z,17.37
2023-01-28T11:50:38.360Z,15.53
2023-01-28T11:53:32.593Z,22.37
2023-01-28T11:56:31.856Z,16.27
2023-01-28T11:59:16.690Z,17.90
2023-01-28T12:01:59.334Z,14.93
2023-01-28T12:05:04.023Z,12.80
2023-01-28T12:07:56.627Z,12.45
2023-01-28T12:11:48.844Z,14.03
2023-01-28T12:14:35.379Z,13.03
2023-01-28T12:17:14.576Z,11.70
2023-01-28T12:20:07.769Z,14.67
2023-01-28T12:22:54.027Z,16.27
2023-01-28T12:25:26.343Z,14.53
2023-01-28T12:28:18.413Z,13.33
2023-01-28T12:31:29.787Z,16.03
2023-01-28T12:34:05.894Z,14.67
2023-01-28T12:37:18.509Z,13.73
2023-01-28T12:40:15.012Z,15.87
2023-01-28T12:42:52.649Z,12.30
2023-01-28T12:45:40.521Z,17.43
2023-01-28T12:48:22.107Z,14.40
2023-01-28T12:51:07.584Z,15.90
2023-01-28T12:54:06.781Z,15.03
2023-01-28T12:56:40.948Z,14.43
2023-01-28T12:59:28.815Z,15.97
2023-01-28T13:02:18.519Z,19.63
2023-01-28T13:05:13.977Z,22.80
2023-01-28T13:08:03.251Z,24.13
2023-01-28T13:10:45.023Z,24.37
2023-01-28T13:13:28.077Z,20.60
2023-01-28T13:15:56.212Z,17.53
2023-01-28T13:19:17.701Z,14.43
2023-01-28T13:21:49.350Z,17.67
2023-01-28T13:24:17.188Z,20.30
2023-01-28T13:26:56.517Z,20.30
2023-01-28T13:29:34.550Z,15.53
2023-01-28T13:32:24.324Z,18.53
2023-01-28T13:35:04.698Z,19.30
2023-01-28T13:37:44.127Z,34.73
2023-01-28T13:40:14.768Z,21.87
2023-01-28T13:42:42.371Z,36.07
2023-01-28T13:45:16.186Z,35.63
2023-01-28T13:50:27.644Z,21.10
2023-01-28T13:53:17.856Z,17.17
2023-01-28T13:55:46.637Z,14.80
2023-01-28T13:59:26.190Z,14.10
2023-01-28T14:02:06.024Z,15.97
2023-01-28T14:05:15.328Z,13.67
2023-01-28T14:08:34.445Z,12.13
2023-01-28T14:11:54.717Z,11.73
2023-01-28T14:14:51.247Z,11.43
2023-01-28T14:17:45.671Z,11.87
2023-01-28T14:20:37.680Z,9.27
2023-01-28T14:23:14.616Z,11.00
2023-01-28T14:25:59.676Z,9.30
2023-01-28T14:28:49.242Z,10.47
2023-01-28T14:31:35.430Z,9.90
2023-01-28T14:34:29.553Z,8.90
2023-01-28T14:37:04.794Z,8.38
2023-01-28T14:39:51.033Z,9.70
2023-01-28T14:42:51.656Z,12.30
2023-01-28T14:45:59.791Z,11.97
2023-01-28T14:48:47.387Z,10.87
2023-01-28T14:51:51.773Z,10.73
2023-01-28T14:54:36.077Z,11.60
2023-01-28T15:01:02.769Z,12.23
2023-01-28T15:03:32.059Z,13.87
2023-01-28T15:06:34.229Z,11.37
2023-01-28T15:09:13.176Z,11.40
2023-01-28T15:11:46.330Z,10.40
2023-01-28T15:14:23.044Z,9.65
2023-01-28T15:16:51.139Z,10.23
2023-01-28T15:19:29.742Z,11.10
2023-01-28T15:22:00.977Z,13.07
2023-01-28T15:24:28.680Z,13.20
2023-01-28T15:26:56.778Z,11.90
2023-01-28T15:29:32.659Z,12.33
2023-01-28T15:32:00.765Z,10.60
2023-01-28T15:34:30.432Z,12.77
2023-01-28T15:37:00.653Z,19.80
2023-01-28T15:39:30.032Z,12.63
2023-01-28T15:42:02.799Z,15.33
2023-01-28T15:44:43.966Z,23.27
2023-01-28T15:47:20.533Z,30.97
2023-01-28T15:49:53.889Z,28.20
2023-01-28T15:52:29.021Z,19.65
2023-01-28T15:54:56.535Z,21.23
2023-01-28T15:57:34.266Z,14.07
2023-01-28T16:00:07.231Z,11.00
2023-01-28T16:02:55.063Z,10.53
2023-01-28T16:05:38.206Z,10.53
2023-01-28T16:08:27.046Z,13.87
2023-01-28T16:10:56.406Z,8.97
2023-01-28T16:13:28.394Z,12.60
2023-01-28T16:15:57.566Z,8.17
2023-01-28T16:18:38.743Z,13.33
2023-01-28T16:21:10.592Z,12.20
2023-01-28T16:23:39.874Z,10.70
2023-01-28T16:26:24.413Z,9.40
2023-01-28T16:28:52.247Z,23.40
2023-01-28T16:31:20.481Z,11.77
2023-01-28T16:33:48.446Z,15.30
2023-01-28T16:36:19.182Z,21.27
2023-01-28T16:38:46.766Z,19.27
2023-01-28T16:41:27.426Z,18.87
2023-01-28T16:43:54.947Z,14.60
2023-01-28T16:46:26.212Z,17.77
2023-01-28T16:48:53.776Z,13.87
2023-01-28T16:51:21.349Z,12.17
2023-01-28T16:53:50.071Z,9.37
2023-01-28T16:56:44.121Z,11.00
2023-01-28T16:59:11.674Z,10.60
2023-01-28T17:01:39.556Z,9.33
2023-01-28T17:04:12.357Z,11.53
2023-01-28T17:06:44.241Z,10.60
2023-01-28T17:09:14.049Z,13.03
2023-01-28T17:11:41.714Z,17.67
2023-01-28T17:14:11.142Z,16.87
2023-01-28T17:16:38.995Z,14.73
2023-01-28T17:19:06.664Z,13.97
2023-01-28T17:21:34.514Z,16.67
2023-01-28T17:24:02.984Z,26.43
2023-01-28T17:26:30.827Z,28.47
2023-01-28T17:28:58.378Z,31.27
2023-01-28T17:31:26.384Z,27.03
2023-01-28T17:33:56.420Z,17.03
2023-01-28T17:36:25.060Z,13.10
2023-01-28T17:38:53.615Z,11.63
2023-01-28T17:41:21.741Z,13.70
2023-01-28T17:43:54.793Z,12.43
2023-01-28T17:46:25.407Z,13.47
2023-01-28T17:48:53.709Z,12.87
2023-01-28T17:51:21.627Z,10.60
2023-01-28T17:53:53.587Z,12.67
2023-01-28T17:56:26.835Z,36.67
2023-01-28T17:58:57.648Z,23.60
2023-01-28T18:01:26.533Z,18.97
2023-01-28T18:03:55.187Z,20.17
2023-01-28T18:06:22.964Z,17.20
2023-01-28T18:08:50.773Z,14.30
2023-01-28T18:11:19.862Z,20.30
2023-01-28T18:13:47.484Z,13.13
2023-01-28T18:16:18.426Z,10.07
2023-01-28T18:18:46.767Z,9.93
2023-01-28T18:21:51.310Z,7.93
2023-01-28T18:24:24.484Z,7.73
2023-01-28T18:26:55.470Z,8.73
2023-01-28T18:29:24.066Z,7.60
2023-01-28T18:31:54.962Z,8.67
2023-01-28T18:34:25.646Z,8.17
2023-01-28T18:36:53.969Z,15.23
2023-01-28T18:39:21.744Z,15.73
2023-01-28T18:41:52.987Z,10.10
2023-01-28T18:44:21.003Z,9.30
2023-01-28T18:46:49.157Z,12.00
2023-01-28T18:49:16.824Z,9.30
2023-01-28T18:51:44.528Z,9.97
2023-01-28T18:54:14.885Z,10.83
2023-01-28T18:56:44.032Z,11.07
2023-01-28T18:59:14.267Z,10.27
2023-01-28T19:01:42.765Z,11.37
2023-01-28T19:04:10.920Z,11.70
2023-01-28T19:06:38.569Z,9.87
2023-01-28T19:09:07.154Z,14.63
2023-01-28T19:11:34.979Z,9.70
2023-01-28T19:14:02.902Z,9.13
2023-01-28T19:16:30.747Z,11.40
2023-01-28T19:19:00.682Z,9.93
2023-01-28T19:21:31.196Z,10.07
2023-01-28T19:24:01.912Z,9.23
2023-01-28T19:26:31.352Z,10.90
2023-01-28T19:28:59.483Z,10.57
2023-01-28T19:31:27.406Z,15.20
2023-01-28T19:33:58.090Z,16.07
2023-01-28T19:36:28.046Z,11.63
2023-01-28T19:39:07.021Z,17.30
2023-01-28T19:41:35.880Z,17.80
2023-01-28T19:44:04.919Z,20.53
2023-01-28T19:46:33.840Z,14.30
2023-01-28T19:49:01.873Z,9.07
2023-01-28T19:51:29.590Z,10.90
2023-01-28T19:53:57.911Z,9.93
2023-01-28T19:56:26.857Z,10.30
2023-01-28T19:58:54.995Z,12.60
2023-01-28T20:01:29.874Z,13.90
2023-01-28T20:04:00.015Z,11.27
2023-01-28T20:06:31.032Z,9.30
2023-01-28T20:09:14.475Z,12.07
2023-01-28T20:11:41.979Z,11.07
2023-01-28T20:14:09.637Z,8.93
2023-01-28T20:16:37.284Z,8.87
2023-01-28T20:19:08.351Z,9.07
2023-01-28T20:21:36.250Z,9.17
2023-01-28T20:24:04.767Z,10.27
2023-01-28T20:26:35.984Z,11.77
2023-01-28T20:29:13.611Z,11.80
2023-01-28T20:31:42.423Z,13.20
2023-01-28T20:34:17.003Z,11.10
2023-01-28T20:36:45.129Z,9.03
2023-01-28T20:39:13.677Z,9.07
2023-01-28T20:41:41.151Z,9.50
2023-01-28T20:44:08.622Z,10.03
2023-01-28T20:46:37.054Z,13.97
2023-01-28T20:49:06.615Z,8.27
2023-01-28T20:51:35.918Z,10.00
2023-01-28T20:54:04.227Z,7.73
2023-01-28T20:56:31.929Z,9.43
2023-01-28T20:59:04.524Z,10.23
2023-01-28T21:01:35.049Z,9.40
2023-01-28T21:04:04.801Z,10.57
2023-01-28T21:06:33.034Z,9.83
2023-01-28T21:09:00.824Z,8.77
2023-01-28T21:11:28.646Z,9.27
2023-01-28T21:13:56.812Z,7.60
2023-01-28T21:16:25.271Z,7.00
2023-01-28T21:18:52.838Z,6.80
2023-01-28T21:21:28.890Z,9.10
2023-01-28T21:24:00.346Z,8.13
2023-01-28T21:26:28.392Z,7.20
2023-01-28T21:28:56.253Z,6.97
2023-01-28T21:31:26.255Z,10.93
2023-01-28T21:33:58.700Z,11.33
2023-01-28T21:36:27.177Z,8.63
2023-01-28T21:38:58.215Z,10.97
2023-01-28T21:41:27.372Z,9.47
2023-01-28T21:43:57.106Z,11.20
2023-01-28T21:46:28.746Z,8.23
2023-01-28T21:49:01.682Z,12.63
2023-01-28T21:51:35.732Z,7.13
2023-01-28T21:56:31.802Z,7.73
2023-01-28T21:59:17.726Z,7.50
2023-01-28T22:01:45.986Z,8.03
2023-01-28T22:04:14.135Z,9.00
2023-01-28T22:06:42.735Z,7.00
2023-01-28T22:09:14.402Z,9.53
2023-01-28T22:11:44.219Z,8.53
2023-01-28T22:14:12.584Z,8.30
2023-01-28T22:16:40.366Z,9.13
2023-01-28T22:19:08.584Z,8.53
2023-01-28T22:21:42.360Z,7.47
2023-01-28T22:24:22.507Z,7.57
2023-01-28T22:26:51.944Z,8.90
2023-01-28T22:29:21.505Z,8.33
2023-01-28T22:31:52.279Z,5.77
2023-01-28T22:34:21.165Z,7.77
2023-01-28T22:36:50.029Z,6.20
2023-01-28T22:39:18.401Z,8.57
2023-01-28T22:41:46.637Z,10.00
2023-01-28T22:44:14.437Z,7.40
2023-01-28T22:46:42.368Z,7.23
2023-01-28T22:49:12.062Z,7.87
2023-01-28T22:51:39.583Z,5.70
2023-01-28T22:54:07.972Z,6.40
2023-01-28T22:56:35.594Z,7.90
2023-01-28T22:59:04.196Z,7.73
2023-01-28T23:01:32.410Z,6.33
2023-01-28T23:04:00.218Z,6.87
2023-01-28T23:06:28.239Z,6.50
2023-01-28T23:08:56.501Z,6.33
2023-01-28T23:11:25.455Z,7.83
2023-01-28T23:14:15.277Z,6.80
2023-01-28T23:17:01.985Z,7.60
2023-01-28T23:19:48.601Z,7.07
2023-01-28T23:22:41.911Z,7.53
2023-01-28T23:25:10.231Z,5.73
2023-01-28T23:27:38.053Z,7.43
2023-01-28T23:30:09.904Z,5.83
2023-01-28T23:32:49.400Z,5.87
2023-01-28T23:35:18.882Z,7.13
2023-01-28T23:37:47.853Z,6.27
2023-01-28T23:40:16.355Z,5.93
2023-01-28T23:42:55.101Z,6.27
2023-01-28T23:45:22.912Z,7.27
2023-01-28T23:47:50.495Z,9.43
2023-01-28T23:50:18.490Z,6.47
2023-01-28T23:52:46.194Z,5.57
2023-01-28T23:55:13.651Z,8.07
2023-01-28T23:57:41.614Z,7.77
